• Join FlightAware (Why Join?)
  • Login
  • US Flag 
04:13AM EST


 

Airport Tracker/Info


-or-


 

Live Flight TrackerFlight Track Log ✈ OPT332 ✈ 20-Sep-2013 ✈ KCHA - KABY

Flight Track Log - Related Links

Times and Time Zones

All times are in EDT time to prevent confusion due to time zone crossing. See the OPT332 flight status page for this flight to view local times or setup timezone preferences in your user account.

Time Position Orientation Groundspeed Altitude Reporting Facility
EDT Latitude Longitude Course Direction KTS MPH feet Rate Location/Type
02:26PM 34.8848 -85.1823 166° South 255 293 9,600  Level FlightAware ADS-B
02:26PM 34.8493 -85.1712 166° South 263 303 11,300 3,240 Climbing FlightAware ADS-B
02:27PM 34.8131 -85.1600 166° South 270 311 12,900 3,000 Climbing FlightAware ADS-B
02:27PM 34.7813 -85.1502 166° South 278 320 14,100 2,700 Climbing FlightAware ADS-B
02:28PM 34.7410 -85.1379 166° South 286 329 15,500 2,460 Climbing FlightAware ADS-B
02:28PM 34.7010 -85.1257 166° South 299 344 16,700 2,220 Climbing FlightAware ADS-B
02:29PM 34.6588 -85.1128 166° South 310 357 17,800 2,220 Climbing FlightAware ADS-B
02:29PM 34.6159 -85.0997 166° South 318 366 19,000 2,280 Climbing FlightAware ADS-B
02:30PM 34.5707 -85.0860 166° South 323 372 20,200 2,340 Climbing FlightAware ADS-B
02:30PM 34.5251 -85.0720 166° South 322 371 21,500 1,740 Climbing FlightAware ADS-B
02:31PM 34.4794 -85.0582 166° South 342 394 22,000 960 Climbing FlightAware ADS-B
02:31PM 34.4322 -85.0438 166° South 358 412 22,500 960 Climbing FlightAware ADS-B
02:32PM 34.3826 -85.0289 166° South 371 427 23,000 480 Climbing FlightAware ADS-B
02:32PM 34.3289 -85.0126 166° South 396 456 23,000  Level FlightAware ADS-B
02:33PM 34.2731 -84.9957 166° South 406 467 23,000  Level FlightAware ADS-B
02:33PM 34.2182 -84.9791 166° South 403 464 23,000  Level FlightAware ADS-B
02:34PM 34.1607 -84.9616 166° South 401 461 23,000  Level FlightAware ADS-B
02:34PM 34.1036 -84.9445 166° South 399 459 23,000  Level FlightAware ADS-B
02:35PM 34.0429 -84.9262 166° South 399 459 23,000  Level FlightAware ADS-B
02:35PM 33.9887 -84.9099 166° South 399 459 23,000  Level FlightAware ADS-B
02:36PM 33.9301 -84.8923 166° South 399 459 23,000  Level FlightAware ADS-B
02:37PM 33.8360 -84.8641 166° South 398 458 23,000  Level FlightAware ADS-B
02:38PM 33.7083 -84.8256 166° South 404 465 23,000  Level Atlanta Center
02:39PM 33.5894 -84.7944 168° South 399 459 23,000  Level Atlanta Center
02:40PM 33.4811 -84.7636 167° South 399 459 23,000  Level Atlanta Center
02:41PM 33.3750 -84.7303 165° South 399 459 23,000  Level Atlanta Center
02:42PM 33.2664 -84.7022 168° South 399 459 23,000  Level Atlanta Center
02:43PM 33.1706 -84.6742 166° South 394 453 23,000  Level Atlanta Center
02:44PM 33.0603 -84.6411 166° South 394 453 23,000  Level Atlanta Center
02:45PM 32.9558 -84.6083 165° South 389 448 23,000  Level Atlanta Center
02:46PM 32.8497 -84.5778 166° South 396 456 23,000  Level Atlanta Center
02:47PM 32.7392 -84.5425 165° South 396 456 23,000  Level Atlanta Center
02:48PM 32.6225 -84.5075 166° South 396 456 23,000 -1,080 Level Atlanta Center
02:49PM 32.5181 -84.4797 167° South 409 471 20,900 -2,160 Descending Atlanta Center
02:50PM 32.4056 -84.4447 165° South 414 476 18,700 -2,280 Descending Atlanta Center
02:51PM 32.2844 -84.4122 167° South 419 482 16,400 -2,160 Descending Atlanta Center
02:53PM 32.1058 -84.3592 166° South 400 460 12,800 -1,980 Descending Jacksonville Center
02:54PM 32.0039 -84.3306 167° South 390 449 11,100 -960 Descending Jacksonville Center
02:55PM 31.9039 -84.2997 165° South 372 428 10,900 -1,200 Descending Jacksonville Center
02:56PM 31.8228 -84.2789 168° South 340 391 8,800 -2,280 Descending Jacksonville Center
02:57PM 31.7481 -84.2533 164° South 306 352 6,400 -2,460 Descending Jacksonville Center
02:58PM 31.6731 -84.2328 167° South 288 331 3,900 -2,100 Descending Jacksonville Center
02:59PM 31.6042 -84.2147 167° South 271 312 2,200 -1,080 Descending Jacksonville Center
03:00PM 31.5500 -84.2236 188° South 211 243 1,800 -600 Descending Jacksonville Center
03:01PM 31.5142 -84.2428 205° Southwest 185 213 1,100 -600 Descending Jacksonville Center
03:02PM 31.5186 -84.2086 81° East 65 75 600 -540 Descending Jacksonville Center